Time;durP1;ratioP1;P1;durP2;ratioP2;P2;SDS_P1;SDS_P2;PMS_P1;PMS_P2;Temp;Humidity;BMP_temperature;BMP_pressure;BME280_temperature;BME280_humidity;BME280_pressure;Samples;Min_cycle;Max_cycle;Signal;HPM_P1;HPM_P2
2024/04/06 00:01:14;;;;;;;5.70;3.25;;;;;;;8.94;78.72;93572.78;5089413;28;20072;-72
2024/04/06 00:03:40;;;;;;;5.80;3.05;;;;;;;9.02;78.50;93576.94;5091339;28;20031;-72
2024/04/06 00:06:06;;;;;;;5.75;2.72;;;;;;;8.86;78.33;93554.97;5089653;28;20584;-72
2024/04/06 00:08:32;;;;;;;4.53;2.50;;;;;;;8.86;77.55;93552.44;5091423;28;20040;-72
2024/04/06 00:10:57;;;;;;;3.33;1.83;;;;;;;9.10;77.17;93599.84;5089780;28;20095;-72
2024/04/06 00:13:23;;;;;;;5.18;1.95;;;;;;;8.94;77.76;93590.72;5091402;28;20035;-72
2024/04/06 00:15:48;;;;;;;4.40;2.40;;;;;;;8.79;78.23;93583.94;5094420;28;20469;-72
2024/04/06 00:18:14;;;;;;;3.15;2.40;;;;;;;8.66;78.85;93555.69;5089231;28;20032;-72
2024/04/06 00:20:39;;;;;;;4.78;2.22;;;;;;;8.66;79.37;93571.06;5094184;28;20032;-72
2024/04/06 00:23:05;;;;;;;4.93;2.35;;;;;;;8.86;79.80;93594.22;5096956;28;20143;-72
2024/04/06 00:25:31;;;;;;;5.05;2.50;;;;;;;8.57;81.01;93549.94;5096640;28;20522;-72
2024/04/06 00:27:56;;;;;;;;;;;;;;;8.86;80.24;93586.53;5095393;28;20063;-72
2024/04/06 00:30:22;;;;;;;4.70;3.08;;;;;;;8.69;80.27;93571.47;5092944;28;20080;-72
2024/04/06 00:32:47;;;;;;;9.30;3.00;;;;;;;8.57;80.80;93547.38;5095395;28;20169;-72
2024/04/06 00:35:13;;;;;;;7.20;3.10;;;;;;;8.52;79.14;93536.91;5095146;28;20638;-72
2024/04/06 00:37:38;;;;;;;4.82;3.13;;;;;;;8.53;79.44;93536.69;5096726;28;20050;-72
2024/04/06 00:40:05;;;;;;;7.65;3.13;;;;;;;8.63;78.88;93549.19;5095485;28;20043;-72
2024/04/06 00:42:31;;;;;;;6.75;3.10;;;;;;;8.67;79.84;93563.16;5094222;28;20031;-72
2024/04/06 00:44:56;;;;;;;6.95;4.00;;;;;;;8.75;80.76;93575.03;5094459;28;20080;-72
2024/04/06 00:47:21;;;;;;;7.70;3.60;;;;;;;8.29;80.18;93512.31;5097105;28;20023;-72
2024/04/06 00:49:47;;;;;;;5.85;4.00;;;;;;;8.51;80.40;93536.06;5096849;28;20050;-72
2024/04/06 00:52:13;;;;;;;12.18;5.10;;;;;;;8.57;80.09;93542.25;5094914;28;20035;-72
2024/04/06 00:54:38;;;;;;;11.23;6.00;;;;;;;8.32;80.57;93499.13;5097121;28;20110;-72
2024/04/06 00:57:07;;;;;;;10.23;5.50;;;;;;;8.78;80.85;93571.31;5095364;28;20279;-72
2024/04/06 00:59:34;;;;;;;14.98;10.10;;;;;;;8.71;80.89;93568.72;5094681;28;20100;-72
2024/04/06 01:02:00;;;;;;;22.50;11.07;;;;;;;8.46;81.03;93524.81;5094768;28;20423;-72
2024/04/06 01:04:25;;;;;;;11.80;7.28;;;;;;;8.70;81.16;93567.13;5092448;28;20030;-72
2024/04/06 01:06:51;;;;;;;15.07;7.30;;;;;;;8.71;81.96;93565.34;5094478;28;20046;-72
2024/04/06 01:09:16;;;;;;;10.13;4.13;;;;;;;8.63;83.08;93553.50;5097082;28;20058;-72
2024/04/06 01:11:42;;;;;;;11.43;6.53;;;;;;;8.68;81.33;93562.22;5097742;28;20047;-72
2024/04/06 01:14:07;;;;;;;9.88;5.70;;;;;;;8.68;80.93;93566.53;5094834;28;20036;-72
2024/04/06 01:16:34;;;;;;;7.82;5.47;;;;;;;8.54;80.70;93552.84;5094418;28;20032;-72
2024/04/06 01:18:59;;;;;;;8.30;5.28;;;;;;;8.49;81.46;93542.34;5096065;28;20055;-72
2024/04/06 01:21:26;;;;;;;8.48;5.38;;;;;;;8.63;82.01;93569.66;5095556;28;20457;-72
2024/04/06 01:23:52;;;;;;;6.40;3.50;;;;;;;8.51;81.73;93559.13;5096432;28;20032;-72
2024/04/06 01:26:19;;;;;;;5.55;3.90;;;;;;;8.54;81.45;93576.72;5095048;28;20028;-72
2024/04/06 01:28:44;;;;;;;6.20;3.55;;;;;;;8.58;81.69;93573.75;5091554;28;20062;-72
2024/04/06 01:31:10;;;;;;;7.22;3.85;;;;;;;8.36;82.51;93553.31;5094559;28;20048;-72
2024/04/06 01:33:36;;;;;;;7.85;3.53;;;;;;;8.52;81.81;93580.44;5093917;28;20070;-72
2024/04/06 01:36:01;;;;;;;5.57;3.40;;;;;;;8.30;81.98;93547.19;5093963;28;20080;-72
2024/04/06 01:38:26;;;;;;;5.55;3.08;;;;;;;8.24;83.07;93541.03;5095538;28;20039;-72
2024/04/06 01:40:52;;;;;;;8.40;3.70;;;;;;;8.28;82.86;93538.88;5092256;28;20039;-72
2024/04/06 01:43:17;;;;;;;7.82;3.00;;;;;;;8.13;82.78;93523.63;5095184;28;20032;-72
2024/04/06 01:45:43;;;;;;;6.38;2.60;;;;;;;8.29;83.05;93532.81;5098217;28;20496;-72
2024/04/06 01:48:08;;;;;;;5.50;2.90;;;;;;;8.37;84.09;93560.81;5099396;28;20059;-72
2024/04/06 01:50:34;;;;;;;4.35;3.00;;;;;;;8.31;83.95;93553.88;5092490;28;20023;-72
2024/04/06 01:52:59;;;;;;;5.47;3.40;;;;;;;8.38;84.34;93564.94;5096344;28;20111;-72
2024/04/06 01:55:25;;;;;;;11.35;3.33;;;;;;;8.39;83.77;93565.75;5093890;28;20140;-72
2024/04/06 01:57:50;;;;;;;4.82;2.55;;;;;;;8.37;83.80;93571.03;5094915;28;20143;-72
2024/04/06 02:00:16;;;;;;;4.03;2.20;;;;;;;8.33;83.56;93569.06;5097700;28;20036;-72
2024/04/06 02:02:41;;;;;;;3.05;2.40;;;;;;;8.29;84.27;93558.41;5096964;28;20386;-72
2024/04/06 02:05:07;;;;;;;4.70;2.30;;;;;;;8.22;85.01;93549.88;5095765;28;20028;-72
2024/04/06 02:07:32;;;;;;;4.22;2.60;;;;;;;8.19;84.83;93551.03;5094227;28;20055;-72
2024/04/06 02:09:58;;;;;;;3.85;2.25;;;;;;;8.25;83.24;93555.41;5099258;28;20019;-72
2024/04/06 02:12:23;;;;;;;5.38;2.35;;;;;;;8.20;82.49;93555.16;5097309;28;20028;-72
2024/04/06 02:14:49;;;;;;;9.82;4.95;;;;;;;7.93;82.82;93529.41;5093418;28;20377;-72
2024/04/06 02:17:14;;;;;;;10.95;5.53;;;;;;;7.81;83.71;93523.97;5078639;28;20390;-72
2024/04/06 02:19:40;;;;;;;10.65;5.35;;;;;;;7.84;84.49;93546.66;5094885;28;20042;-71
2024/04/06 02:22:06;;;;;;;5.53;2.80;;;;;;;7.87;85.00;93560.84;5093950;28;20485;-72
2024/04/06 02:24:31;;;;;;;5.00;3.10;;;;;;;7.40;84.72;93499.84;5092286;28;20477;-71
2024/04/06 02:26:57;;;;;;;5.05;2.75;;;;;;;7.74;86.36;93553.84;5093559;28;20043;-71
2024/04/06 02:29:23;;;;;;;5.18;2.53;;;;;;;7.43;88.65;93519.94;5093688;28;20549;-72
2024/04/06 02:31:48;;;;;;;6.72;3.28;;;;;;;7.39;90.37;93536.59;5092577;28;20118;-71
2024/04/06 02:34:14;;;;;;;8.00;2.80;;;;;;;7.53;91.68;93564.81;5091907;28;20072;-72
2024/04/06 02:36:39;;;;;;;5.05;2.90;;;;;;;7.37;89.22;93528.31;5094119;28;20032;-72
2024/04/06 02:39:12;;;;;;;4.70;2.55;;;;;;;7.47;87.95;93536.50;5092314;28;20122;-72
2024/04/06 02:41:38;;;;;;;6.63;3.00;;;;;;;7.72;88.02;93560.88;5095940;28;20040;-72
2024/04/06 02:44:03;;;;;;;8.32;3.10;;;;;;;7.58;88.67;93532.63;5096049;28;20434;-72
2024/04/06 02:46:29;;;;;;;6.03;3.17;;;;;;;7.52;89.10;93530.81;5096576;28;20122;-72
2024/04/06 02:48:54;;;;;;;6.32;3.00;;;;;;;7.00;88.31;93454.28;5091395;28;20479;-72
2024/04/06 02:51:20;;;;;;;5.45;2.88;;;;;;;7.38;86.89;93503.53;5096379;28;20042;-72
2024/04/06 02:53:46;;;;;;;6.55;2.83;;;;;;;7.48;86.24;93506.59;5093963;28;20031;-72
2024/04/06 02:56:12;;;;;;;6.03;3.30;;;;;;;7.79;85.79;93566.06;5098444;28;20080;-72
2024/04/06 02:58:37;;;;;;;;;;;;;;;7.85;85.88;93565.31;5096791;28;20107;-72
2024/04/06 03:01:03;;;;;;;5.35;2.95;;;;;;;7.65;88.19;93539.56;5096190;28;20010;-72
2024/04/06 03:03:28;;;;;;;4.68;2.60;;;;;;;7.55;88.46;93532.22;5093702;28;20064;-72
2024/04/06 03:05:54;;;;;;;6.20;2.90;;;;;;;7.66;88.96;93554.75;5095212;28;20040;-72
2024/04/06 03:08:19;;;;;;;5.20;3.13;;;;;;;7.39;90.41;93530.69;5097370;28;20109;-72
2024/04/06 03:10:45;;;;;;;18.50;12.98;;;;;;;7.47;91.31;93551.81;5094317;28;20036;-72
2024/04/06 03:13:10;;;;;;;23.83;14.40;;;;;;;7.41;92.00;93541.53;5097203;28;20027;-72
2024/04/06 03:15:36;;;;;;;8.70;4.22;;;;;;;7.41;93.51;93557.63;5096163;28;20039;-72
2024/04/06 03:18:01;;;;;;;16.45;10.82;;;;;;;7.12;94.02;93515.09;5095770;28;20038;-72
2024/04/06 03:20:27;;;;;;;32.95;22.27;;;;;;;7.04;94.29;93501.44;5094772;28;20035;-72
2024/04/06 03:23:03;;;;;;;17.70;10.95;;;;;;;7.14;94.83;93526.72;5094033;28;20043;-72
2024/04/06 03:25:30;;;;;;;15.75;10.68;;;;;;;7.24;93.05;93541.75;5093594;28;20036;-72
2024/04/06 03:27:56;;;;;;;11.73;6.97;;;;;;;6.95;92.68;93498.22;5094788;28;20028;-72
2024/04/06 03:30:23;;;;;;;12.73;6.13;;;;;;;6.97;91.76;93502.34;5101499;28;20024;-72
2024/04/06 03:32:49;;;;;;;11.15;5.72;;;;;;;7.05;90.94;93507.34;5097641;28;20028;-73
2024/04/06 03:35:14;;;;;;;6.85;4.28;;;;;;;7.00;90.83;93512.22;5093408;28;20035;-72
2024/04/06 03:37:40;;;;;;;6.32;3.90;;;;;;;7.04;90.69;93526.22;5098407;28;20035;-72
2024/04/06 03:40:06;;;;;;;4.63;2.67;;;;;;;7.02;91.16;93535.78;5100287;28;20453;-73
2024/04/06 03:42:32;;;;;;;7.18;2.75;;;;;;;6.80;91.64;93507.66;5099001;28;20042;-73
2024/04/06 03:44:57;;;;;;;;;;;;;;;7.13;92.13;93558.31;5099357;28;20493;-73
2024/04/06 03:47:23;;;;;;;5.70;2.90;;;;;;;6.85;92.64;93530.13;5099524;28;19941;-73
2024/04/06 03:49:49;;;;;;;4.53;2.20;;;;;;;6.79;93.44;93521.41;5098876;28;20032;-72
2024/04/06 03:52:14;;;;;;;4.28;2.63;;;;;;;6.67;94.72;93514.19;5101206;28;20030;-72
2024/04/06 03:54:41;;;;;;;3.92;2.30;;;;;;;6.64;95.51;93506.09;5099009;28;20038;-72
2024/04/06 03:57:06;;;;;;;;;;;;;;;6.81;96.38;93550.88;5099506;28;20466;-72
2024/04/06 03:59:32;;;;;;;5.55;2.83;;;;;;;6.70;96.90;93543.69;5097041;28;19955;-72
2024/04/06 04:01:57;;;;;;;7.43;3.13;;;;;;;6.45;97.47;93513.34;5100718;28;20039;-72
2024/04/06 04:04:23;;;;;;;4.78;2.72;;;;;;;6.46;98.76;93509.00;5097420;28;20500;-72
2024/04/06 04:06:48;;;;;;;6.13;3.45;;;;;;;6.51;98.05;93525.38;5098415;28;20019;-72
2024/04/06 04:09:16;;;;;;;5.80;2.90;;;;;;;6.85;96.52;93568.41;5094862;28;20040;-72
2024/04/06 04:11:42;;;;;;;6.15;2.97;;;;;;;6.86;94.45;93563.13;5091187;28;20938;-72
2024/04/06 04:14:08;;;;;;;7.50;3.65;;;;;;;6.94;93.68;93568.13;5092380;28;20024;-72
2024/04/06 04:16:34;;;;;;;;;;;;;;;7.01;92.53;93564.88;5096356;28;20473;-72
2024/04/06 04:18:59;;;;;;;7.95;3.20;;;;;;;6.99;93.00;93565.03;5096710;28;19918;-72
2024/04/06 04:21:25;;;;;;;5.35;2.85;;;;;;;6.84;93.77;93564.28;5096354;28;20020;-72
2024/04/06 04:23:51;;;;;;;4.13;2.42;;;;;;;6.63;93.18;93527.50;5095707;28;20213;-72
2024/04/06 04:26:16;;;;;;;13.20;2.88;;;;;;;6.77;92.68;93546.31;5095842;28;20044;-72
2024/04/06 04:28:42;;;;;;;7.93;4.68;;;;;;;6.67;92.58;93537.16;5095292;28;20073;-72
2024/04/06 04:31:17;;;;;;;9.23;4.90;;;;;;;6.85;91.99;93555.66;5095373;28;20448;-72
2024/04/06 04:33:43;;;;;;;11.32;5.65;;;;;;;6.88;91.69;93555.28;5093503;28;20039;-72
2024/04/06 04:36:12;;;;;;;;;;;;;;;7.01;91.93;93569.97;5092304;28;20032;-72
2024/04/06 04:38:38;;;;;;;11.48;6.13;;;;;;;6.61;92.99;93534.53;5090708;28;19916;-72
2024/04/06 04:41:04;;;;;;;18.50;9.45;;;;;;;6.60;94.21;93550.81;5095439;28;20032;-72
2024/04/06 04:43:29;;;;;;;16.13;8.23;;;;;;;6.48;95.09;93547.91;5093670;28;20027;-72
2024/04/06 04:45:55;;;;;;;13.90;7.10;;;;;;;6.81;96.04;93593.53;5092725;28;20120;-72
2024/04/06 04:48:21;;;;;;;12.23;6.25;;;;;;;6.85;96.39;93596.50;5092044;28;20560;-72
2024/04/06 04:50:46;;;;;;;14.00;6.72;;;;;;;6.64;94.35;93554.59;5090714;28;20036;-73
2024/04/06 04:53:12;;;;;;;16.75;7.35;;;;;;;6.97;94.10;93594.28;5096052;28;20061;-72
2024/04/06 04:55:37;;;;;;;12.45;7.28;;;;;;;6.94;92.71;93587.75;5096198;28;20028;-72
2024/04/06 04:58:03;;;;;;;13.35;6.88;;;;;;;6.82;93.13;93546.59;5095098;28;20035;-72
2024/04/06 05:00:29;;;;;;;21.42;7.60;;;;;;;6.93;93.67;93563.19;5095575;28;20031;-72
2024/04/06 05:02:56;;;;;;;18.33;7.10;;;;;;;7.07;93.19;93576.91;5097483;28;20119;-73
2024/04/06 05:05:22;;;;;;;12.13;5.57;;;;;;;7.32;93.73;93605.50;5095483;28;20517;-73
2024/04/06 05:07:48;;;;;;;;;;;;;;;7.48;92.83;93598.59;5094625;28;20048;-72
2024/04/06 05:10:13;;;;;;;11.60;4.85;;;;;;;7.27;92.44;93559.25;5095636;28;20369;-72
2024/04/06 05:12:39;;;;;;;9.98;3.97;;;;;;;7.66;92.22;93593.09;5096441;28;20415;-72
2024/04/06 05:15:04;;;;;;;7.25;3.60;;;;;;;7.53;91.61;93550.28;5097876;28;20055;-72
2024/04/06 05:17:30;;;;;;;7.82;3.95;;;;;;;7.79;90.16;93566.06;5090884;28;20375;-72
2024/04/06 05:19:55;;;;;;;7.45;4.25;;;;;;;7.80;89.28;93555.66;5095718;28;20047;-72
2024/04/06 05:22:21;;;;;;;5.25;3.25;;;;;;;8.24;88.85;93583.75;5094395;28;20036;-72
2024/04/06 05:24:46;;;;;;;7.30;3.55;;;;;;;8.32;89.15;93572.59;5094895;28;20040;-72
2024/04/06 05:27:12;;;;;;;7.57;4.68;;;;;;;8.42;91.01;93573.84;5093906;28;20061;-72
2024/04/06 05:29:37;;;;;;;9.73;4.13;;;;;;;8.72;89.95;93579.75;5092687;28;20024;-72
2024/04/06 05:32:03;;;;;;;8.52;4.20;;;;;;;9.01;86.32;93603.53;5094207;28;20454;-71
2024/04/06 05:34:29;;;;;;;13.10;5.32;;;;;;;8.85;86.58;93555.97;5091570;28;20578;-72
2024/04/06 05:36:54;;;;;;;12.70;5.80;;;;;;;9.47;84.37;93608.06;5094461;28;20044;-72
2024/04/06 05:39:20;;;;;;;11.38;4.85;;;;;;;9.73;84.24;93616.81;5094107;28;20058;-72
2024/04/06 05:41:46;;;;;;;12.43;6.60;;;;;;;9.33;83.72;93535.47;5093821;28;20067;-73
2024/04/06 05:44:12;;;;;;;12.10;6.07;;;;;;;9.94;82.64;93570.66;5093255;28;20067;-72
2024/04/06 05:46:37;;;;;;;18.63;7.85;;;;;;;10.20;81.83;93579.34;5092070;28;20483;-72
2024/04/06 05:49:05;;;;;;;22.05;7.75;;;;;;;10.59;81.62;93603.47;5094953;28;20084;-72
2024/04/06 05:51:34;;;;;;;12.05;6.93;;;;;;;10.74;78.61;93574.97;5088485;28;20465;-72
2024/04/06 05:54:03;;;;;;;14.27;7.57;;;;;;;11.02;77.41;93578.28;5087154;28;20077;-72
2024/04/06 05:56:29;;;;;;;14.00;6.25;;;;;;;11.26;75.40;93574.22;5089071;28;20516;-72
2024/04/06 05:58:54;;;;;;;17.25;6.78;;;;;;;11.44;74.94;93555.53;5086697;28;20067;-72
2024/04/06 06:01:21;;;;;;;15.07;6.35;;;;;;;11.89;75.33;93582.19;5087485;28;20200;-72
2024/04/06 06:03:47;;;;;;;15.32;6.30;;;;;;;12.13;74.96;93578.09;5104241;28;20130;-72
2024/04/06 06:06:13;;;;;;;15.05;5.93;;;;;;;12.52;71.74;93590.88;5090162;28;20646;-72
2024/04/06 06:08:39;;;;;;;11.50;5.35;;;;;;;12.75;71.31;93599.78;5104044;28;20046;-72
2024/04/06 06:11:05;;;;;;;12.70;5.25;;;;;;;12.42;70.41;93500.41;5094851;28;20489;-72
2024/04/06 06:13:32;;;;;;;10.80;4.53;;;;;;;13.31;67.06;93602.38;5090842;28;20074;-72
2024/04/06 06:15:59;;;;;;;13.73;5.57;;;;;;;13.36;67.36;93601.72;5093629;28;20058;-72
2024/04/06 06:18:24;;;;;;;11.05;5.75;;;;;;;13.60;66.60;93589.72;5087348;28;20020;-72
2024/04/06 06:20:49;;;;;;;11.15;4.55;;;;;;;13.62;65.58;93561.91;5085718;28;20081;-72
2024/04/06 06:23:15;;;;;;;12.10;4.35;;;;;;;13.79;65.31;93594.84;5089262;28;20397;-72
2024/04/06 06:25:40;;;;;;;15.65;5.57;;;;;;;14.08;64.13;93596.84;5087307;28;20097;-72
2024/04/06 06:28:06;;;;;;;15.93;5.68;;;;;;;14.39;63.60;93600.13;5090912;28;20032;-72
2024/04/06 06:30:31;;;;;;;17.58;5.85;;;;;;;14.69;63.00;93592.28;5098365;28;20963;-72
2024/04/06 06:32:57;;;;;;;14.02;4.97;;;;;;;14.59;61.34;93537.78;5105091;28;20032;-72
2024/04/06 06:35:23;;;;;;;12.07;5.63;;;;;;;15.04;59.58;93557.06;5099673;28;20445;-72
2024/04/06 06:37:49;;;;;;;13.02;6.07;;;;;;;14.87;60.62;93580.28;5098086;28;20028;-72
2024/04/06 06:40:14;;;;;;;15.18;6.53;;;;;;;15.15;59.01;93604.66;5099364;28;20072;-72
2024/04/06 06:42:40;;;;;;;17.60;6.85;;;;;;;15.15;58.89;93558.06;5088344;28;20492;-72
2024/04/06 06:45:06;;;;;;;23.38;9.10;;;;;;;15.02;58.76;93582.41;5090418;28;20119;-72
2024/04/06 06:47:35;;;;;;;19.52;8.88;;;;;;;14.87;60.69;93577.69;5083585;28;20542;-72
2024/04/06 06:50:00;;;;;;;20.35;8.55;;;;;;;14.80;59.17;93577.00;5089749;28;20397;-72
2024/04/06 06:52:26;;;;;;;21.70;9.80;;;;;;;14.84;61.63;93601.41;5085510;28;20032;-72
2024/04/06 06:54:52;;;;;;;22.20;8.65;;;;;;;15.16;59.30;93571.78;5089985;28;20046;-72
2024/04/06 06:57:17;;;;;;;20.15;10.00;;;;;;;15.09;58.96;93571.94;5087219;28;20123;-71
2024/04/06 06:59:43;;;;;;;23.55;9.00;;;;;;;15.16;58.91;93576.97;5088455;28;20031;-72
2024/04/06 07:02:08;;;;;;;19.40;8.40;;;;;;;15.88;58.38;93619.72;5093447;28;20050;-72
2024/04/06 07:04:36;;;;;;;20.92;8.10;;;;;;;15.88;56.64;93595.63;5092743;28;20143;-72
2024/04/06 07:07:01;;;;;;;18.67;8.43;;;;;;;16.24;57.01;93604.00;5093068;28;20401;-72
2024/04/06 07:09:28;;;;;;;23.77;8.38;;;;;;;16.67;56.66;93621.78;5092812;28;20051;-72
2024/04/06 07:11:54;;;;;;;22.42;8.32;;;;;;;16.66;55.69;93582.06;5093146;28;20075;-72
2024/04/06 07:14:19;;;;;;;;;;;;;;;17.18;53.69;93618.34;5093848;28;20122;-72
2024/04/06 07:16:45;;;;;;;22.73;7.85;;;;;;;16.63;53.98;93556.63;5093716;28;20366;-72
2024/04/06 07:19:11;;;;;;;23.35;7.05;;;;;;;17.06;53.38;93626.22;5092610;28;20054;-72
2024/04/06 07:21:36;;;;;;;22.80;7.03;;;;;;;17.07;51.73;93625.97;5099074;28;20046;-72
2024/04/06 07:24:02;;;;;;;23.20;7.35;;;;;;;16.82;52.40;93621.19;5095700;28;20032;-72
2024/04/06 07:26:28;;;;;;;21.92;5.72;;;;;;;17.14;50.97;93619.84;5091748;28;20122;-72
2024/04/06 07:28:54;;;;;;;24.17;5.95;;;;;;;17.34;50.73;93572.56;5091858;28;20032;-72
2024/04/06 07:31:19;;;;;;;13.95;4.85;;;;;;;17.82;48.55;93611.75;5095827;28;20158;-72
2024/04/06 07:33:45;;;;;;;17.58;7.05;;;;;;;18.07;49.51;93586.28;5091889;28;20122;-72
2024/04/06 07:36:10;;;;;;;13.95;5.03;;;;;;;18.64;49.31;93597.13;5093915;28;20453;-72
2024/04/06 07:38:36;;;;;;;14.07;4.68;;;;;;;18.94;45.92;93585.34;5090829;28;20089;-73
2024/04/06 07:41:03;;;;;;;16.65;5.45;;;;;;;19.36;45.62;93612.38;5090593;28;20119;-73
2024/04/06 07:43:29;;;;;;;12.15;3.67;;;;;;;19.28;43.82;93587.59;5089281;28;20085;-72
2024/04/06 07:45:55;;;;;;;;;;;;;;;19.57;45.16;93615.84;5090392;28;20032;-72
2024/04/06 07:48:23;;;;;;;14.68;4.93;;;;;;;19.55;44.24;93585.88;5095936;28;20440;-73
2024/04/06 07:50:49;;;;;;;14.15;4.63;;;;;;;19.93;43.36;93598.72;5094148;28;20032;-73
2024/04/06 07:53:15;;;;;;;17.48;4.88;;;;;;;19.78;43.35;93582.00;5091771;28;20032;-73
2024/04/06 07:55:41;;;;;;;19.58;5.13;;;;;;;20.36;43.76;93604.50;5092904;28;20043;-73
2024/04/06 07:58:06;;;;;;;;;;;;;;;20.77;42.51;93602.91;5094430;28;20049;-73
2024/04/06 08:00:35;;;;;;;18.92;5.40;;;;;;;21.02;44.42;93599.50;5090442;28;19935;-73
2024/04/06 08:03:01;;;;;;;33.42;6.03;;;;;;;21.24;44.03;93564.44;5093311;28;20036;-73
2024/04/06 08:05:27;;;;;;;37.70;6.85;;;;;;;21.87;42.50;93597.09;5090943;28;20065;-73
2024/04/06 08:07:52;;;;;;;34.83;6.50;;;;;;;21.50;40.15;93608.75;5091788;28;20085;-71
2024/04/06 08:10:20;;;;;;;34.30;8.02;;;;;;;21.22;39.90;93563.91;5093290;28;20495;-71
2024/04/06 08:12:46;;;;;;;25.38;5.93;;;;;;;21.62;40.66;93548.31;5093725;28;20495;-70
2024/04/06 08:15:12;;;;;;;;;;;;;;;22.26;39.13;93611.22;5094808;28;20040;-71
2024/04/06 08:17:42;;;;;;;29.08;5.43;;;;;;;22.39;41.32;93599.34;5096102;28;20022;-71
2024/04/06 08:20:08;;;;;;;21.10;4.20;;;;;;;22.55;39.91;93580.94;5097794;28;20050;-71
2024/04/06 08:22:38;;;;;;;9.00;2.33;;;;;;;22.55;36.62;93600.00;5090124;28;20036;-71
2024/04/06 08:25:05;;;;;;;10.23;2.90;;;;;;;21.90;38.35;93606.22;5090715;28;20401;-71
2024/04/06 08:27:34;;;;;;;17.33;2.92;;;;;;;21.14;38.11;93601.03;5090005;28;20121;-71
2024/04/06 08:30:00;;;;;;;18.58;4.53;;;;;;;20.90;38.11;93571.09;5092372;28;20400;-70
2024/04/06 08:32:29;;;;;;;11.55;2.78;;;;;;;21.52;38.33;93606.63;5091757;28;20065;-70
2024/04/06 08:34:57;;;;;;;6.10;2.15;;;;;;;21.38;38.99;93561.25;5091690;28;20043;-71
2024/04/06 08:37:23;;;;;;;5.32;1.35;;;;;;;21.55;37.47;93564.28;5090845;28;20040;-71
2024/04/06 08:39:48;;;;;;;;;;;;;;;21.95;37.34;93600.19;5090951;28;20511;-71
2024/04/06 08:42:16;;;;;;;;;;;;;;;22.01;36.48;93591.25;5091395;28;19921;-71
2024/04/06 08:44:43;;;;;;;5.88;1.38;;;;;;;22.54;37.66;93584.59;5091167;28;19977;-71
2024/04/06 08:47:13;;;;;;;5.88;1.50;;;;;;;22.57;35.92;93557.09;5090202;28;20040;-71
2024/04/06 08:49:40;;;;;;;6.22;1.67;;;;;;;22.75;36.16;93555.59;5094511;28;20031;-71
2024/04/06 08:52:07;;;;;;;8.18;1.27;;;;;;;22.13;35.35;93520.28;5091702;28;20498;-70
2024/04/06 08:54:33;;;;;;;9.35;1.40;;;;;;;21.61;38.00;93571.06;5091514;28;20649;-70
2024/04/06 08:57:01;;;;;;;;;;;;;;;21.52;37.67;93585.72;5096046;28;20548;-70
2024/04/06 08:59:27;;;;;;;4.72;2.03;;;;;;;21.70;38.76;93578.34;5091874;28;19927;-70
2024/04/06 09:01:53;;;;;;;;;;;;;;;21.30;38.22;93599.16;5092669;28;20059;-70
2024/04/06 09:04:19;;;;;;;3.53;1.05;;;;;;;21.35;38.08;93586.84;5095554;28;19976;-70
2024/04/06 09:06:44;;;;;;;;;;;;;;;21.80;37.11;93593.97;5091215;28;20128;-71
2024/04/06 09:09:10;;;;;;;4.75;1.40;;;;;;;21.52;37.39;93598.78;5089894;28;20505;-71
2024/04/06 09:11:40;;;;;;;4.68;1.90;;;;;;;21.94;37.53;93559.41;5088519;28;20036;-71
2024/04/06 09:14:06;;;;;;;6.22;1.63;;;;;;;22.09;36.38;93559.28;5093047;28;20107;-71
2024/04/06 09:16:33;;;;;;;3.63;1.20;;;;;;;22.18;37.97;93556.88;5091698;28;20430;-70
2024/04/06 09:18:59;;;;;;;4.82;0.90;;;;;;;22.68;37.35;93564.56;5091206;28;20046;-70
2024/04/06 09:21:24;;;;;;;;;;;;;;;22.74;37.26;93588.06;5097134;28;20392;-71
2024/04/06 09:23:55;;;;;;;;;;;;;;;22.80;36.73;93589.59;5094393;28;19954;-71
2024/04/06 09:26:22;;;;;;;6.07;1.27;;;;;;;23.00;36.70;93569.50;5095726;28;19920;-71
2024/04/06 09:28:52;;;;;;;3.33;0.82;;;;;;;23.34;35.72;93537.91;5093345;28;20036;-70
2024/04/06 09:31:24;;;;;;;3.25;1.00;;;;;;;23.93;35.45;93538.72;5089480;28;20073;-71
2024/04/06 09:33:55;;;;;;;2.55;0.60;;;;;;;22.95;35.97;93549.34;5097113;28;20039;-71
2024/04/06 09:36:21;;;;;;;3.20;0.95;;;;;;;22.82;36.57;93569.91;5089875;28;20028;-71
2024/04/06 09:38:48;;;;;;;10.93;1.33;;;;;;;23.31;36.54;93548.97;5092211;28;20056;-71
2024/04/06 09:41:19;;;;;;;5.97;1.42;;;;;;;23.70;35.42;93565.50;5089348;28;20088;-71
2024/04/06 09:43:49;;;;;;;3.38;0.95;;;;;;;23.67;35.71;93531.22;5092763;28;20043;-71
2024/04/06 09:46:18;;;;;;;3.38;1.23;;;;;;;24.11;33.70;93563.41;5093331;28;20059;-71
2024/04/06 09:48:44;;;;;;;4.57;0.90;;;;;;;24.18;34.19;93542.81;5101786;28;20083;-71
2024/04/06 09:51:10;;;;;;;3.45;0.90;;;;;;;23.60;33.99;93534.97;5091557;28;20539;-71
2024/04/06 09:53:37;;;;;;;;;;;;;;;23.79;32.90;93538.66;5093119;28;20044;-71
2024/04/06 09:56:04;;;;;;;2.95;0.88;;;;;;;23.34;34.47;93524.06;5089839;28;19920;-71
2024/04/06 09:58:30;;;;;;;4.82;1.02;;;;;;;23.65;35.02;93471.19;5087363;28;20036;-71
2024/04/06 10:00:56;;;;;;;;;;;;;;;24.29;33.95;93515.34;5089804;28;20032;-70
2024/04/06 10:03:32;;;;;;;5.70;1.42;;;;;;;24.68;34.59;93515.97;5087796;28;20002;-71
2024/04/06 10:06:10;;;;;;;2.72;1.00;;;;;;;24.64;33.09;93512.38;5087407;28;20043;-71
2024/04/06 10:08:45;;;;;;;4.97;1.30;;;;;;;23.98;33.71;93509.78;5091129;28;20086;-71
2024/04/06 10:11:15;;;;;;;3.25;1.00;;;;;;;23.94;33.65;93479.94;5087460;28;20063;-70
2024/04/06 10:13:40;;;;;;;4.55;1.00;;;;;;;24.38;35.09;93502.31;5089162;28;20023;-71
2024/04/06 10:16:07;;;;;;;4.25;0.80;;;;;;;24.69;33.53;93493.13;5089121;28;20047;-71
2024/04/06 10:18:33;;;;;;;;;;;;;;;24.16;31.33;93500.31;5089147;28;20333;-71
2024/04/06 10:21:09;;;;;;;3.65;1.58;;;;;;;24.16;33.04;93476.69;5089326;28;19912;-71
2024/04/06 10:23:38;;;;;;;2.97;0.80;;;;;;;24.18;31.90;93460.66;5095712;28;20079;-70
2024/04/06 10:26:04;;;;;;;1.27;0.50;;;;;;;24.36;31.61;93465.09;5093071;28;20047;-71
2024/04/06 10:28:29;;;;;;;;;;;;;;;24.44;30.59;93497.75;5092635;28;20497;-71
2024/04/06 10:30:55;;;;;;;1.75;0.80;;;;;;;23.30;32.13;93474.00;5088982;28;19985;-71
2024/04/06 10:33:21;;;;;;;;;;;;;;;22.79;31.14;93467.56;5088736;28;21118;-71
2024/04/06 10:35:48;;;;;;;2.22;0.68;;;;;;;23.22;32.42;93474.63;5087671;28;19916;-71
2024/04/06 10:38:14;;;;;;;1.48;0.45;;;;;;;23.31;33.01;93448.56;5091325;28;20038;-71
2024/04/06 10:40:40;;;;;;;;;;;;;;;23.44;34.23;93476.75;5090983;28;20036;-71
2024/04/06 10:43:05;;;;;;;5.07;0.90;;;;;;;23.65;35.29;93475.66;5089683;28;19920;-71
2024/04/06 10:45:30;;;;;;;;;;;;;;;23.72;34.30;93482.09;5091527;28;20106;-71
2024/04/06 10:47:56;;;;;;;2.40;0.82;;;;;;;22.73;30.42;93456.34;5090099;28;20294;-71
2024/04/06 10:50:21;;;;;;;;;;;;;;;23.11;28.55;93492.34;5088867;28;20028;-71
2024/04/06 10:52:47;;;;;;;;;;;;;;;22.70;30.15;93480.50;5088959;28;19999;-71
2024/04/06 10:55:20;;;;;;;2.97;0.68;;;;;;;22.93;31.90;93465.84;5069879;28;19924;-71
2024/04/06 10:57:46;;;;;;;2.47;1.02;;;;;;;22.67;29.17;93449.63;5088841;28;20762;-71
2024/04/06 11:00:13;;;;;;;;;;;;;;;23.17;29.40;93461.59;5090337;28;20054;-71
2024/04/06 11:02:39;;;;;;;1.58;0.73;;;;;;;23.18;28.62;93432.50;5088710;28;20341;-71
2024/04/06 11:05:08;;;;;;;0.93;0.40;;;;;;;22.81;30.05;93450.53;5092167;28;20043;-71
2024/04/06 11:07:34;;;;;;;3.72;1.15;;;;;;;22.26;32.58;93393.28;5092589;28;20081;-71
2024/04/06 11:10:00;;;;;;;;;;;;;;;22.46;32.07;93430.72;5088793;28;20043;-71
2024/04/06 11:12:28;;;;;;;1.35;0.52;;;;;;;22.07;31.55;93388.75;5092267;28;19912;-73
2024/04/06 11:14:58;;;;;;;1.92;0.80;;;;;;;22.55;31.42;93408.16;5088212;28;20047;-73
2024/04/06 11:17:24;;;;;;;1.25;0.77;;;;;;;22.81;30.49;93439.25;5096566;28;20039;-73
2024/04/06 11:19:53;;;;;;;;;;;;;;;22.96;30.81;93436.44;5086500;28;20044;-71
2024/04/06 11:22:19;;;;;;;2.05;1.05;;;;;;;22.99;32.12;93376.72;5089054;28;19922;-70
2024/04/06 11:24:45;;;;;;;2.53;1.35;;;;;;;23.55;32.76;93424.16;5089048;28;20035;-71
2024/04/06 11:27:10;;;;;;;;;;;;;;;24.17;32.70;93425.78;5090793;28;20103;-71
2024/04/06 11:29:35;;;;;;;4.00;1.20;;;;;;;24.13;31.96;93393.31;5088645;28;19920;-71
2024/04/06 11:32:01;;;;;;;;;;;;;;;24.46;31.50;93429.19;5089346;28;20591;-71
2024/04/06 11:34:27;;;;;;;3.28;0.50;;;;;;;24.02;32.47;93382.97;5088902;28;19919;-71
2024/04/06 11:36:52;;;;;;;;;;;;;;;24.21;32.81;93412.88;5089263;28;20070;-71